sensor_id;sensor_type;location;lat;lon;timestamp;P1;durP1;ratioP1;P2;durP2;ratioP2
50495;SDS011;38806;51.554;5.704;2023-06-14T00:00:08;15.48;;;9.50;;
50495;SDS011;38806;51.554;5.704;2023-06-14T00:02:09;15.82;;;9.73;;
50495;SDS011;38806;51.554;5.704;2023-06-14T00:04:12;14.48;;;10.20;;
50495;SDS011;38806;51.554;5.704;2023-06-14T00:06:13;13.55;;;9.45;;
50495;SDS011;38806;51.554;5.704;2023-06-14T00:08:13;11.73;;;8.85;;
50495;SDS011;38806;51.554;5.704;2023-06-14T00:10:14;13.13;;;9.60;;
50495;SDS011;38806;51.554;5.704;2023-06-14T00:12:14;11.82;;;7.93;;
50495;SDS011;38806;51.554;5.704;2023-06-14T00:14:15;12.80;;;9.52;;
50495;SDS011;38806;51.554;5.704;2023-06-14T00:16:15;11.85;;;8.43;;
50495;SDS011;38806;51.554;5.704;2023-06-14T00:18:16;16.77;;;9.52;;
50495;SDS011;38806;51.554;5.704;2023-06-14T00:20:27;13.82;;;9.27;;
50495;SDS011;38806;51.554;5.704;2023-06-14T00:22:45;18.20;;;9.93;;
50495;SDS011;38806;51.554;5.704;2023-06-14T00:24:45;13.05;;;8.95;;
50495;SDS011;38806;51.554;5.704;2023-06-14T00:26:52;12.77;;;9.13;;
50495;SDS011;38806;51.554;5.704;2023-06-14T00:28:53;11.93;;;8.48;;
50495;SDS011;38806;51.554;5.704;2023-06-14T00:30:53;21.35;;;9.15;;
50495;SDS011;38806;51.554;5.704;2023-06-14T00:32:57;13.02;;;8.77;;
50495;SDS011;38806;51.554;5.704;2023-06-14T00:34:57;10.65;;;8.07;;
50495;SDS011;38806;51.554;5.704;2023-06-14T00:36:58;14.27;;;8.77;;
50495;SDS011;38806;51.554;5.704;2023-06-14T00:38:58;9.45;;;7.97;;
50495;SDS011;38806;51.554;5.704;2023-06-14T00:40:59;13.20;;;8.23;;
50495;SDS011;38806;51.554;5.704;2023-06-14T00:43:00;12.52;;;9.38;;
50495;SDS011;38806;51.554;5.704;2023-06-14T00:45:06;11.73;;;7.28;;
50495;SDS011;38806;51.554;5.704;2023-06-14T00:47:07;11.07;;;7.28;;
50495;SDS011;38806;51.554;5.704;2023-06-14T00:49:07;9.70;;;7.28;;
50495;SDS011;38806;51.554;5.704;2023-06-14T00:51:11;9.20;;;7.03;;
50495;SDS011;38806;51.554;5.704;2023-06-14T00:53:12;11.75;;;8.00;;
50495;SDS011;38806;51.554;5.704;2023-06-14T00:55:12;12.77;;;8.70;;
50495;SDS011;38806;51.554;5.704;2023-06-14T00:57:22;13.32;;;7.82;;
50495;SDS011;38806;51.554;5.704;2023-06-14T00:59:33;12.23;;;8.18;;
50495;SDS011;38806;51.554;5.704;2023-06-14T01:01:39;9.63;;;7.22;;
50495;SDS011;38806;51.554;5.704;2023-06-14T01:03:40;11.27;;;7.40;;
50495;SDS011;38806;51.554;5.704;2023-06-14T01:05:40;11.05;;;7.72;;
50495;SDS011;38806;51.554;5.704;2023-06-14T01:10:26;13.63;;;7.82;;
50495;SDS011;38806;51.554;5.704;2023-06-14T01:14:49;12.32;;;7.43;;
50495;SDS011;38806;51.554;5.704;2023-06-14T01:16:56;16.35;;;6.93;;
50495;SDS011;38806;51.554;5.704;2023-06-14T01:21:25;13.80;;;7.85;;
50495;SDS011;38806;51.554;5.704;2023-06-14T01:23:26;11.20;;;7.07;;
50495;SDS011;38806;51.554;5.704;2023-06-14T01:25:38;11.38;;;8.27;;
50495;SDS011;38806;51.554;5.704;2023-06-14T01:27:40;10.52;;;6.20;;
50495;SDS011;38806;51.554;5.704;2023-06-14T01:29:41;9.48;;;6.82;;
50495;SDS011;38806;51.554;5.704;2023-06-14T01:31:45;11.07;;;7.20;;
50495;SDS011;38806;51.554;5.704;2023-06-14T01:33:53;9.68;;;7.25;;
50495;SDS011;38806;51.554;5.704;2023-06-14T01:36:00;9.88;;;6.78;;
50495;SDS011;38806;51.554;5.704;2023-06-14T01:38:02;9.70;;;6.45;;
50495;SDS011;38806;51.554;5.704;2023-06-14T01:40:03;11.35;;;6.55;;
50495;SDS011;38806;51.554;5.704;2023-06-14T01:42:10;9.65;;;5.95;;
50495;SDS011;38806;51.554;5.704;2023-06-14T01:44:11;8.57;;;5.97;;
50495;SDS011;38806;51.554;5.704;2023-06-14T01:46:13;9.52;;;6.22;;
50495;SDS011;38806;51.554;5.704;2023-06-14T01:48:14;9.85;;;6.18;;
50495;SDS011;38806;51.554;5.704;2023-06-14T01:50:18;13.43;;;6.55;;
50495;SDS011;38806;51.554;5.704;2023-06-14T01:52:19;10.15;;;6.85;;
50495;SDS011;38806;51.554;5.704;2023-06-14T01:54:19;8.90;;;5.88;;
50495;SDS011;38806;51.554;5.704;2023-06-14T01:56:21;10.00;;;6.97;;
50495;SDS011;38806;51.554;5.704;2023-06-14T01:58:22;9.68;;;5.90;;
50495;SDS011;38806;51.554;5.704;2023-06-14T02:00:32;9.27;;;6.07;;
50495;SDS011;38806;51.554;5.704;2023-06-14T02:04:41;8.82;;;5.28;;
50495;SDS011;38806;51.554;5.704;2023-06-14T02:06:41;12.23;;;7.45;;
50495;SDS011;38806;51.554;5.704;2023-06-14T02:08:42;9.02;;;5.63;;
50495;SDS011;38806;51.554;5.704;2023-06-14T02:10:42;9.00;;;5.68;;
50495;SDS011;38806;51.554;5.704;2023-06-14T02:12:43;12.27;;;7.13;;
50495;SDS011;38806;51.554;5.704;2023-06-14T02:14:52;7.93;;;4.82;;
50495;SDS011;38806;51.554;5.704;2023-06-14T02:16:56;9.98;;;6.25;;
50495;SDS011;38806;51.554;5.704;2023-06-14T02:19:00;9.75;;;5.20;;
50495;SDS011;38806;51.554;5.704;2023-06-14T02:21:00;10.60;;;5.35;;
50495;SDS011;38806;51.554;5.704;2023-06-14T02:23:06;10.23;;;5.57;;
50495;SDS011;38806;51.554;5.704;2023-06-14T02:25:11;10.00;;;5.30;;
50495;SDS011;38806;51.554;5.704;2023-06-14T02:27:11;9.60;;;5.38;;
50495;SDS011;38806;51.554;5.704;2023-06-14T02:29:11;7.53;;;4.70;;
50495;SDS011;38806;51.554;5.704;2023-06-14T02:31:14;10.70;;;5.15;;
50495;SDS011;38806;51.554;5.704;2023-06-14T02:33:16;9.95;;;5.53;;
50495;SDS011;38806;51.554;5.704;2023-06-14T02:35:20;9.27;;;4.93;;
50495;SDS011;38806;51.554;5.704;2023-06-14T02:37:22;14.75;;;5.68;;
50495;SDS011;38806;51.554;5.704;2023-06-14T02:39:22;11.30;;;5.20;;
50495;SDS011;38806;51.554;5.704;2023-06-14T02:41:23;7.68;;;4.78;;
50495;SDS011;38806;51.554;5.704;2023-06-14T02:43:24;9.90;;;4.90;;
50495;SDS011;38806;51.554;5.704;2023-06-14T02:45:24;8.90;;;5.07;;
50495;SDS011;38806;51.554;5.704;2023-06-14T02:47:25;9.45;;;5.07;;
50495;SDS011;38806;51.554;5.704;2023-06-14T02:49:26;12.07;;;5.85;;
50495;SDS011;38806;51.554;5.704;2023-06-14T02:51:26;10.82;;;5.60;;
50495;SDS011;38806;51.554;5.704;2023-06-14T02:53:26;9.45;;;5.18;;
50495;SDS011;38806;51.554;5.704;2023-06-14T02:55:27;9.05;;;5.45;;
50495;SDS011;38806;51.554;5.704;2023-06-14T02:57:28;8.10;;;5.45;;
50495;SDS011;38806;51.554;5.704;2023-06-14T02:59:28;11.90;;;5.72;;
50495;SDS011;38806;51.554;5.704;2023-06-14T03:01:28;9.68;;;6.05;;
50495;SDS011;38806;51.554;5.704;2023-06-14T03:03:41;8.32;;;4.95;;
50495;SDS011;38806;51.554;5.704;2023-06-14T03:05:45;8.00;;;4.40;;
50495;SDS011;38806;51.554;5.704;2023-06-14T03:07:49;10.68;;;5.85;;
50495;SDS011;38806;51.554;5.704;2023-06-14T03:09:50;9.43;;;6.03;;
50495;SDS011;38806;51.554;5.704;2023-06-14T03:11:50;9.48;;;5.40;;
50495;SDS011;38806;51.554;5.704;2023-06-14T03:13:51;9.10;;;5.82;;
50495;SDS011;38806;51.554;5.704;2023-06-14T03:15:57;7.82;;;5.35;;
50495;SDS011;38806;51.554;5.704;2023-06-14T03:17:58;12.07;;;5.78;;
50495;SDS011;38806;51.554;5.704;2023-06-14T03:20:05;8.45;;;5.75;;
50495;SDS011;38806;51.554;5.704;2023-06-14T03:22:11;10.48;;;5.82;;
50495;SDS011;38806;51.554;5.704;2023-06-14T03:24:12;8.43;;;5.38;;
50495;SDS011;38806;51.554;5.704;2023-06-14T03:26:18;8.82;;;4.40;;
50495;SDS011;38806;51.554;5.704;2023-06-14T03:28:22;8.10;;;5.22;;
50495;SDS011;38806;51.554;5.704;2023-06-14T03:30:22;10.52;;;6.00;;
50495;SDS011;38806;51.554;5.704;2023-06-14T03:32:23;11.48;;;5.95;;
50495;SDS011;38806;51.554;5.704;2023-06-14T03:34:23;7.80;;;5.32;;
50495;SDS011;38806;51.554;5.704;2023-06-14T03:36:23;9.48;;;5.43;;
50495;SDS011;38806;51.554;5.704;2023-06-14T03:38:24;11.82;;;5.70;;
50495;SDS011;38806;51.554;5.704;2023-06-14T03:40:24;9.68;;;4.43;;
50495;SDS011;38806;51.554;5.704;2023-06-14T03:42:27;10.85;;;4.90;;
50495;SDS011;38806;51.554;5.704;2023-06-14T03:44:27;7.93;;;5.18;;
50495;SDS011;38806;51.554;5.704;2023-06-14T03:46:28;8.40;;;5.07;;
50495;SDS011;38806;51.554;5.704;2023-06-14T03:48:31;11.95;;;6.38;;
50495;SDS011;38806;51.554;5.704;2023-06-14T03:50:31;7.97;;;4.65;;
50495;SDS011;38806;51.554;5.704;2023-06-14T03:52:32;9.13;;;5.53;;
50495;SDS011;38806;51.554;5.704;2023-06-14T03:54:42;11.30;;;5.78;;
50495;SDS011;38806;51.554;5.704;2023-06-14T03:56:44;7.72;;;4.70;;
50495;SDS011;38806;51.554;5.704;2023-06-14T03:58:46;9.23;;;5.05;;
50495;SDS011;38806;51.554;5.704;2023-06-14T04:00:46;9.20;;;4.88;;
50495;SDS011;38806;51.554;5.704;2023-06-14T04:02:47;10.07;;;5.40;;
50495;SDS011;38806;51.554;5.704;2023-06-14T04:04:47;10.57;;;5.47;;
50495;SDS011;38806;51.554;5.704;2023-06-14T04:06:48;8.85;;;5.32;;
50495;SDS011;38806;51.554;5.704;2023-06-14T04:08:56;9.93;;;5.13;;
50495;SDS011;38806;51.554;5.704;2023-06-14T04:11:02;8.98;;;5.75;;
50495;SDS011;38806;51.554;5.704;2023-06-14T04:13:06;9.70;;;5.18;;
50495;SDS011;38806;51.554;5.704;2023-06-14T04:15:07;9.60;;;5.63;;
50495;SDS011;38806;51.554;5.704;2023-06-14T04:17:08;10.95;;;4.70;;
50495;SDS011;38806;51.554;5.704;2023-06-14T04:19:08;9.75;;;5.07;;
50495;SDS011;38806;51.554;5.704;2023-06-14T04:21:09;8.98;;;5.35;;
50495;SDS011;38806;51.554;5.704;2023-06-14T04:23:16;7.65;;;5.03;;
50495;SDS011;38806;51.554;5.704;2023-06-14T04:25:24;9.10;;;5.53;;
50495;SDS011;38806;51.554;5.704;2023-06-14T04:27:26;9.68;;;5.13;;
50495;SDS011;38806;51.554;5.704;2023-06-14T04:29:27;10.55;;;4.80;;
50495;SDS011;38806;51.554;5.704;2023-06-14T04:31:29;8.38;;;4.55;;
50495;SDS011;38806;51.554;5.704;2023-06-14T04:33:38;7.13;;;5.13;;
50495;SDS011;38806;51.554;5.704;2023-06-14T04:35:45;7.03;;;4.50;;
50495;SDS011;38806;51.554;5.704;2023-06-14T04:37:50;8.32;;;5.32;;
50495;SDS011;38806;51.554;5.704;2023-06-14T04:39:56;9.35;;;5.05;;
50495;SDS011;38806;51.554;5.704;2023-06-14T04:42:00;9.18;;;5.20;;
50495;SDS011;38806;51.554;5.704;2023-06-14T04:44:06;11.35;;;5.45;;
50495;SDS011;38806;51.554;5.704;2023-06-14T04:46:10;11.73;;;4.97;;
50495;SDS011;38806;51.554;5.704;2023-06-14T04:48:10;10.43;;;5.70;;
50495;SDS011;38806;51.554;5.704;2023-06-14T04:50:12;11.00;;;6.43;;
50495;SDS011;38806;51.554;5.704;2023-06-14T04:52:13;9.20;;;4.13;;
50495;SDS011;38806;51.554;5.704;2023-06-14T04:54:13;11.70;;;5.65;;
50495;SDS011;38806;51.554;5.704;2023-06-14T04:56:14;7.55;;;3.97;;
50495;SDS011;38806;51.554;5.704;2023-06-14T04:58:15;7.63;;;4.93;;
50495;SDS011;38806;51.554;5.704;2023-06-14T05:00:15;8.48;;;5.07;;
50495;SDS011;38806;51.554;5.704;2023-06-14T05:02:16;8.07;;;4.45;;
50495;SDS011;38806;51.554;5.704;2023-06-14T05:04:16;10.90;;;6.60;;
50495;SDS011;38806;51.554;5.704;2023-06-14T05:06:20;9.55;;;5.68;;
50495;SDS011;38806;51.554;5.704;2023-06-14T05:08:21;8.13;;;4.70;;
50495;SDS011;38806;51.554;5.704;2023-06-14T05:10:24;8.63;;;5.38;;
50495;SDS011;38806;51.554;5.704;2023-06-14T05:12:25;8.65;;;5.90;;
50495;SDS011;38806;51.554;5.704;2023-06-14T05:14:25;12.30;;;5.10;;
50495;SDS011;38806;51.554;5.704;2023-06-14T05:16:26;10.85;;;4.88;;
50495;SDS011;38806;51.554;5.704;2023-06-14T05:18:27;11.93;;;4.70;;
50495;SDS011;38806;51.554;5.704;2023-06-14T05:20:28;9.30;;;4.65;;
50495;SDS011;38806;51.554;5.704;2023-06-14T05:22:28;8.88;;;4.82;;
50495;SDS011;38806;51.554;5.704;2023-06-14T05:24:29;8.18;;;4.28;;
50495;SDS011;38806;51.554;5.704;2023-06-14T05:26:30;8.85;;;4.63;;
50495;SDS011;38806;51.554;5.704;2023-06-14T05:28:37;10.00;;;4.72;;
50495;SDS011;38806;51.554;5.704;2023-06-14T05:30:37;9.13;;;5.10;;
50495;SDS011;38806;51.554;5.704;2023-06-14T05:32:38;10.70;;;4.93;;
50495;SDS011;38806;51.554;5.704;2023-06-14T05:34:39;10.40;;;4.85;;
50495;SDS011;38806;51.554;5.704;2023-06-14T05:36:39;10.30;;;5.18;;
50495;SDS011;38806;51.554;5.704;2023-06-14T05:38:46;8.10;;;4.35;;
50495;SDS011;38806;51.554;5.704;2023-06-14T05:40:46;6.90;;;3.83;;
50495;SDS011;38806;51.554;5.704;2023-06-14T05:42:52;6.57;;;4.07;;
50495;SDS011;38806;51.554;5.704;2023-06-14T05:44:59;9.18;;;5.43;;
50495;SDS011;38806;51.554;5.704;2023-06-14T05:46:59;8.63;;;4.55;;
50495;SDS011;38806;51.554;5.704;2023-06-14T05:49:00;5.93;;;3.90;;
50495;SDS011;38806;51.554;5.704;2023-06-14T05:51:06;6.63;;;3.97;;
50495;SDS011;38806;51.554;5.704;2023-06-14T05:53:09;10.15;;;4.63;;
50495;SDS011;38806;51.554;5.704;2023-06-14T05:55:12;8.02;;;4.18;;
50495;SDS011;38806;51.554;5.704;2023-06-14T05:57:12;9.60;;;3.90;;
50495;SDS011;38806;51.554;5.704;2023-06-14T05:59:13;9.27;;;4.95;;
50495;SDS011;38806;51.554;5.704;2023-06-14T06:01:13;7.93;;;4.68;;
50495;SDS011;38806;51.554;5.704;2023-06-14T06:03:14;9.40;;;4.65;;
50495;SDS011;38806;51.554;5.704;2023-06-14T06:05:14;9.65;;;4.82;;
50495;SDS011;38806;51.554;5.704;2023-06-14T06:07:21;13.07;;;4.80;;
50495;SDS011;38806;51.554;5.704;2023-06-14T06:09:22;13.52;;;5.25;;
50495;SDS011;38806;51.554;5.704;2023-06-14T06:11:22;8.00;;;4.82;;
50495;SDS011;38806;51.554;5.704;2023-06-14T06:13:22;9.52;;;4.82;;
50495;SDS011;38806;51.554;5.704;2023-06-14T06:15:23;7.10;;;4.38;;
50495;SDS011;38806;51.554;5.704;2023-06-14T06:17:24;11.48;;;5.53;;
50495;SDS011;38806;51.554;5.704;2023-06-14T06:19:25;9.65;;;5.72;;
50495;SDS011;38806;51.554;5.704;2023-06-14T06:21:25;9.90;;;4.45;;
50495;SDS011;38806;51.554;5.704;2023-06-14T06:23:25;10.57;;;5.00;;
50495;SDS011;38806;51.554;5.704;2023-06-14T06:25:26;11.82;;;4.68;;
50495;SDS011;38806;51.554;5.704;2023-06-14T06:27:27;16.08;;;5.05;;
50495;SDS011;38806;51.554;5.704;2023-06-14T06:29:27;10.85;;;5.25;;
50495;SDS011;38806;51.554;5.704;2023-06-14T06:31:27;10.35;;;4.80;;
50495;SDS011;38806;51.554;5.704;2023-06-14T06:33:28;20.65;;;5.70;;
50495;SDS011;38806;51.554;5.704;2023-06-14T06:35:28;8.15;;;4.65;;
50495;SDS011;38806;51.554;5.704;2023-06-14T06:37:40;9.82;;;5.50;;
50495;SDS011;38806;51.554;5.704;2023-06-14T06:39:50;7.60;;;4.25;;
50495;SDS011;38806;51.554;5.704;2023-06-14T06:41:51;8.13;;;4.40;;
50495;SDS011;38806;51.554;5.704;2023-06-14T06:43:51;9.02;;;4.40;;
50495;SDS011;38806;51.554;5.704;2023-06-14T06:45:57;8.07;;;4.30;;
50495;SDS011;38806;51.554;5.704;2023-06-14T06:47:58;7.18;;;3.50;;
50495;SDS011;38806;51.554;5.704;2023-06-14T06:49:58;11.07;;;4.63;;
50495;SDS011;38806;51.554;5.704;2023-06-14T06:52:05;7.85;;;4.47;;
50495;SDS011;38806;51.554;5.704;2023-06-14T06:54:09;9.02;;;4.60;;
50495;SDS011;38806;51.554;5.704;2023-06-14T06:56:15;9.00;;;4.68;;
50495;SDS011;38806;51.554;5.704;2023-06-14T06:58:18;6.97;;;3.92;;
50495;SDS011;38806;51.554;5.704;2023-06-14T07:00:19;9.63;;;5.78;;
50495;SDS011;38806;51.554;5.704;2023-06-14T07:02:22;10.55;;;4.43;;
50495;SDS011;38806;51.554;5.704;2023-06-14T07:04:23;10.75;;;4.50;;
50495;SDS011;38806;51.554;5.704;2023-06-14T07:06:23;6.18;;;3.50;;
50495;SDS011;38806;51.554;5.704;2023-06-14T07:08:30;6.25;;;4.32;;
50495;SDS011;38806;51.554;5.704;2023-06-14T07:10:30;8.50;;;4.15;;
50495;SDS011;38806;51.554;5.704;2023-06-14T07:12:31;7.68;;;4.97;;
50495;SDS011;38806;51.554;5.704;2023-06-14T07:14:42;9.48;;;4.13;;
50495;SDS011;38806;51.554;5.704;2023-06-14T07:16:43;10.13;;;3.95;;
50495;SDS011;38806;51.554;5.704;2023-06-14T07:18:43;7.50;;;4.50;;
50495;SDS011;38806;51.554;5.704;2023-06-14T07:20:44;6.90;;;4.10;;
50495;SDS011;38806;51.554;5.704;2023-06-14T07:22:45;10.75;;;4.00;;
50495;SDS011;38806;51.554;5.704;2023-06-14T07:24:45;8.20;;;3.47;;
50495;SDS011;38806;51.554;5.704;2023-06-14T07:26:46;8.35;;;4.22;;
50495;SDS011;38806;51.554;5.704;2023-06-14T07:28:53;7.30;;;3.55;;
50495;SDS011;38806;51.554;5.704;2023-06-14T07:30:54;6.30;;;3.30;;
50495;SDS011;38806;51.554;5.704;2023-06-14T07:32:54;5.93;;;3.40;;
50495;SDS011;38806;51.554;5.704;2023-06-14T07:34:55;6.57;;;3.03;;
50495;SDS011;38806;51.554;5.704;2023-06-14T07:36:55;7.90;;;3.80;;
50495;SDS011;38806;51.554;5.704;2023-06-14T07:38:55;12.63;;;3.95;;
50495;SDS011;38806;51.554;5.704;2023-06-14T07:41:02;8.75;;;3.30;;
50495;SDS011;38806;51.554;5.704;2023-06-14T07:43:02;5.75;;;2.58;;
50495;SDS011;38806;51.554;5.704;2023-06-14T07:45:03;6.55;;;3.65;;
50495;SDS011;38806;51.554;5.704;2023-06-14T07:47:06;7.82;;;4.05;;
50495;SDS011;38806;51.554;5.704;2023-06-14T07:49:07;6.10;;;3.30;;
50495;SDS011;38806;51.554;5.704;2023-06-14T07:51:07;8.32;;;3.40;;
50495;SDS011;38806;51.554;5.704;2023-06-14T07:53:07;4.07;;;2.65;;
50495;SDS011;38806;51.554;5.704;2023-06-14T07:55:08;8.57;;;3.38;;
50495;SDS011;38806;51.554;5.704;2023-06-14T07:57:08;8.73;;;2.95;;
50495;SDS011;38806;51.554;5.704;2023-06-14T07:59:08;6.30;;;3.38;;
50495;SDS011;38806;51.554;5.704;2023-06-14T08:01:09;5.53;;;3.45;;
50495;SDS011;38806;51.554;5.704;2023-06-14T08:03:10;4.18;;;2.95;;
50495;SDS011;38806;51.554;5.704;2023-06-14T08:05:10;6.93;;;3.83;;
50495;SDS011;38806;51.554;5.704;2023-06-14T08:07:11;7.43;;;2.90;;
50495;SDS011;38806;51.554;5.704;2023-06-14T08:09:15;4.60;;;2.90;;
50495;SDS011;38806;51.554;5.704;2023-06-14T08:11:21;6.00;;;3.13;;
50495;SDS011;38806;51.554;5.704;2023-06-14T08:13:21;6.22;;;2.50;;
50495;SDS011;38806;51.554;5.704;2023-06-14T08:15:22;4.10;;;2.72;;
50495;SDS011;38806;51.554;5.704;2023-06-14T08:17:22;5.35;;;2.53;;
50495;SDS011;38806;51.554;5.704;2023-06-14T08:19:22;6.65;;;2.53;;
50495;SDS011;38806;51.554;5.704;2023-06-14T08:21:23;4.93;;;3.40;;
50495;SDS011;38806;51.554;5.704;2023-06-14T08:23:23;11.20;;;3.28;;
50495;SDS011;38806;51.554;5.704;2023-06-14T08:25:24;6.23;;;3.20;;
50495;SDS011;38806;51.554;5.704;2023-06-14T08:27:24;6.47;;;2.47;;
50495;SDS011;38806;51.554;5.704;2023-06-14T08:29:25;7.78;;;2.88;;
50495;SDS011;38806;51.554;5.704;2023-06-14T08:31:29;5.32;;;2.35;;
50495;SDS011;38806;51.554;5.704;2023-06-14T08:33:31;6.60;;;2.15;;
50495;SDS011;38806;51.554;5.704;2023-06-14T08:35:33;4.22;;;1.95;;
50495;SDS011;38806;51.554;5.704;2023-06-14T08:37:40;6.30;;;2.20;;
50495;SDS011;38806;51.554;5.704;2023-06-14T08:39:41;7.47;;;2.55;;
50495;SDS011;38806;51.554;5.704;2023-06-14T08:41:50;4.90;;;2.10;;
50495;SDS011;38806;51.554;5.704;2023-06-14T08:43:55;7.05;;;2.20;;
50495;SDS011;38806;51.554;5.704;2023-06-14T08:46:03;3.58;;;1.67;;
50495;SDS011;38806;51.554;5.704;2023-06-14T08:48:06;3.53;;;2.07;;
50495;SDS011;38806;51.554;5.704;2023-06-14T08:50:07;3.75;;;1.42;;
50495;SDS011;38806;51.554;5.704;2023-06-14T08:52:08;6.15;;;1.88;;
50495;SDS011;38806;51.554;5.704;2023-06-14T08:54:11;4.53;;;2.38;;
50495;SDS011;38806;51.554;5.704;2023-06-14T08:56:11;6.30;;;1.92;;
50495;SDS011;38806;51.554;5.704;2023-06-14T08:58:14;3.42;;;1.27;;
50495;SDS011;38806;51.554;5.704;2023-06-14T09:00:16;4.80;;;1.15;;
50495;SDS011;38806;51.554;5.704;2023-06-14T09:02:20;2.65;;;1.00;;
50495;SDS011;38806;51.554;5.704;2023-06-14T09:04:22;5.45;;;1.20;;
50495;SDS011;38806;51.554;5.704;2023-06-14T09:06:24;3.67;;;1.10;;
50495;SDS011;38806;51.554;5.704;2023-06-14T09:08:25;2.53;;;1.30;;
50495;SDS011;38806;51.554;5.704;2023-06-14T09:10:26;3.15;;;1.42;;
50495;SDS011;38806;51.554;5.704;2023-06-14T09:12:27;2.42;;;1.27;;
50495;SDS011;38806;51.554;5.704;2023-06-14T09:14:31;4.22;;;2.60;;
50495;SDS011;38806;51.554;5.704;2023-06-14T09:16:38;1.60;;;0.82;;
50495;SDS011;38806;51.554;5.704;2023-06-14T09:18:41;2.93;;;1.50;;
50495;SDS011;38806;51.554;5.704;2023-06-14T09:20:52;4.93;;;1.20;;
50495;SDS011;38806;51.554;5.704;2023-06-14T09:23:00;4.43;;;1.70;;
50495;SDS011;38806;51.554;5.704;2023-06-14T09:25:00;1.63;;;1.10;;
50495;SDS011;38806;51.554;5.704;2023-06-14T09:27:01;5.03;;;1.20;;
50495;SDS011;38806;51.554;5.704;2023-06-14T09:29:04;3.72;;;1.40;;
50495;SDS011;38806;51.554;5.704;2023-06-14T09:31:07;2.35;;;1.40;;
50495;SDS011;38806;51.554;5.704;2023-06-14T09:33:09;4.00;;;1.27;;
50495;SDS011;38806;51.554;5.704;2023-06-14T09:35:10;3.55;;;1.40;;
50495;SDS011;38806;51.554;5.704;2023-06-14T09:37:11;2.90;;;1.15;;
50495;SDS011;38806;51.554;5.704;2023-06-14T09:39:11;3.10;;;1.27;;
50495;SDS011;38806;51.554;5.704;2023-06-14T09:41:32;2.92;;;1.33;;
50495;SDS011;38806;51.554;5.704;2023-06-14T09:43:53;3.63;;;1.38;;
50495;SDS011;38806;51.554;5.704;2023-06-14T09:46:03;3.38;;;1.70;;
50495;SDS011;38806;51.554;5.704;2023-06-14T09:48:04;2.63;;;1.23;;
50495;SDS011;38806;51.554;5.704;2023-06-14T09:50:05;4.78;;;2.28;;
50495;SDS011;38806;51.554;5.704;2023-06-14T09:52:06;3.20;;;1.42;;
50495;SDS011;38806;51.554;5.704;2023-06-14T09:54:06;3.53;;;1.33;;
50495;SDS011;38806;51.554;5.704;2023-06-14T09:56:08;5.85;;;2.00;;
50495;SDS011;38806;51.554;5.704;2023-06-14T09:58:12;6.25;;;1.63;;
50495;SDS011;38806;51.554;5.704;2023-06-14T10:00:17;7.93;;;3.03;;
50495;SDS011;38806;51.554;5.704;2023-06-14T10:02:24;4.57;;;2.00;;
50495;SDS011;38806;51.554;5.704;2023-06-14T10:04:25;3.22;;;1.75;;
50495;SDS011;38806;51.554;5.704;2023-06-14T10:06:25;3.30;;;1.92;;
50495;SDS011;38806;51.554;5.704;2023-06-14T10:08:27;3.08;;;1.40;;
50495;SDS011;38806;51.554;5.704;2023-06-14T10:10:28;4.57;;;1.92;;
50495;SDS011;38806;51.554;5.704;2023-06-14T10:12:28;7.72;;;3.40;;
50495;SDS011;38806;51.554;5.704;2023-06-14T10:14:28;4.88;;;1.40;;
50495;SDS011;38806;51.554;5.704;2023-06-14T10:16:37;3.60;;;1.38;;
50495;SDS011;38806;51.554;5.704;2023-06-14T10:23:10;4.93;;;1.33;;
50495;SDS011;38806;51.554;5.704;2023-06-14T10:25:29;3.58;;;1.60;;
50495;SDS011;38806;51.554;5.704;2023-06-14T10:27:29;3.28;;;2.03;;
50495;SDS011;38806;51.554;5.704;2023-06-14T10:29:31;3.78;;;1.60;;
50495;SDS011;38806;51.554;5.704;2023-06-14T10:31:50;3.17;;;1.55;;
50495;SDS011;38806;51.554;5.704;2023-06-14T10:33:57;3.67;;;1.52;;
50495;SDS011;38806;51.554;5.704;2023-06-14T10:36:10;2.25;;;1.20;;
50495;SDS011;38806;51.554;5.704;2023-06-14T10:38:11;2.58;;;1.60;;
50495;SDS011;38806;51.554;5.704;2023-06-14T10:40:26;2.35;;;1.33;;
50495;SDS011;38806;51.554;5.704;2023-06-14T10:42:33;4.13;;;1.90;;
50495;SDS011;38806;51.554;5.704;2023-06-14T10:44:40;3.30;;;1.63;;
50495;SDS011;38806;51.554;5.704;2023-06-14T10:46:45;3.28;;;1.42;;
50495;SDS011;38806;51.554;5.704;2023-06-14T10:48:52;2.85;;;1.70;;
50495;SDS011;38806;51.554;5.704;2023-06-14T10:51:05;2.30;;;1.30;;
50495;SDS011;38806;51.554;5.704;2023-06-14T10:53:21;2.55;;;2.25;;
50495;SDS011;38806;51.554;5.704;2023-06-14T10:55:21;6.10;;;1.90;;
50495;SDS011;38806;51.554;5.704;2023-06-14T10:57:22;3.03;;;1.50;;
50495;SDS011;38806;51.554;5.704;2023-06-14T10:59:24;2.83;;;1.42;;
50495;SDS011;38806;51.554;5.704;2023-06-14T11:03:43;6.32;;;2.50;;
50495;SDS011;38806;51.554;5.704;2023-06-14T11:05:51;10.93;;;1.75;;
50495;SDS011;38806;51.554;5.704;2023-06-14T11:12:05;5.05;;;1.90;;
50495;SDS011;38806;51.554;5.704;2023-06-14T11:14:07;2.50;;;1.42;;
50495;SDS011;38806;51.554;5.704;2023-06-14T11:16:11;4.63;;;1.63;;
50495;SDS011;38806;51.554;5.704;2023-06-14T11:18:13;3.60;;;1.52;;
50495;SDS011;38806;51.554;5.704;2023-06-14T11:20:13;4.05;;;1.27;;
50495;SDS011;38806;51.554;5.704;2023-06-14T11:22:16;4.82;;;1.35;;
50495;SDS011;38806;51.554;5.704;2023-06-14T11:24:17;3.40;;;1.48;;
50495;SDS011;38806;51.554;5.704;2023-06-14T11:26:30;3.28;;;1.20;;
50495;SDS011;38806;51.554;5.704;2023-06-14T11:28:40;4.05;;;1.20;;
50495;SDS011;38806;51.554;5.704;2023-06-14T11:30:40;3.70;;;1.33;;
50495;SDS011;38806;51.554;5.704;2023-06-14T11:32:40;6.50;;;1.47;;
50495;SDS011;38806;51.554;5.704;2023-06-14T11:34:41;6.03;;;1.42;;
50495;SDS011;38806;51.554;5.704;2023-06-14T11:36:51;2.67;;;1.65;;
50495;SDS011;38806;51.554;5.704;2023-06-14T11:38:57;3.58;;;1.45;;
50495;SDS011;38806;51.554;5.704;2023-06-14T11:41:00;2.20;;;1.23;;
50495;SDS011;38806;51.554;5.704;2023-06-14T11:43:01;3.40;;;1.38;;
50495;SDS011;38806;51.554;5.704;2023-06-14T11:45:02;4.13;;;1.55;;
50495;SDS011;38806;51.554;5.704;2023-06-14T11:47:06;3.33;;;1.50;;
50495;SDS011;38806;51.554;5.704;2023-06-14T11:49:06;2.85;;;1.30;;
50495;SDS011;38806;51.554;5.704;2023-06-14T11:51:10;2.65;;;1.33;;
50495;SDS011;38806;51.554;5.704;2023-06-14T11:53:11;1.70;;;1.20;;
50495;SDS011;38806;51.554;5.704;2023-06-14T11:55:12;2.42;;;1.42;;
50495;SDS011;38806;51.554;5.704;2023-06-14T11:57:12;4.45;;;1.38;;
50495;SDS011;38806;51.554;5.704;2023-06-14T11:59:13;4.57;;;1.77;;
50495;SDS011;38806;51.554;5.704;2023-06-14T12:01:16;4.30;;;1.23;;
50495;SDS011;38806;51.554;5.704;2023-06-14T12:03:16;2.28;;;1.20;;
50495;SDS011;38806;51.554;5.704;2023-06-14T12:05:20;2.92;;;1.40;;
50495;SDS011;38806;51.554;5.704;2023-06-14T12:07:21;3.08;;;1.50;;
50495;SDS011;38806;51.554;5.704;2023-06-14T12:09:22;2.15;;;1.25;;
50495;SDS011;38806;51.554;5.704;2023-06-14T12:11:24;3.28;;;1.55;;
50495;SDS011;38806;51.554;5.704;2023-06-14T12:13:30;3.07;;;1.40;;
50495;SDS011;38806;51.554;5.704;2023-06-14T12:15:40;2.80;;;1.30;;
50495;SDS011;38806;51.554;5.704;2023-06-14T12:17:41;6.95;;;2.88;;
50495;SDS011;38806;51.554;5.704;2023-06-14T12:19:42;3.38;;;1.33;;
50495;SDS011;38806;51.554;5.704;2023-06-14T12:21:46;1.98;;;1.20;;
50495;SDS011;38806;51.554;5.704;2023-06-14T12:23:54;2.70;;;1.15;;
50495;SDS011;38806;51.554;5.704;2023-06-14T12:25:54;2.90;;;1.77;;
50495;SDS011;38806;51.554;5.704;2023-06-14T12:30:12;4.20;;;1.95;;
50495;SDS011;38806;51.554;5.704;2023-06-14T12:32:13;2.85;;;1.10;;
50495;SDS011;38806;51.554;5.704;2023-06-14T12:34:13;1.80;;;1.02;;
50495;SDS011;38806;51.554;5.704;2023-06-14T12:36:13;4.27;;;1.40;;
50495;SDS011;38806;51.554;5.704;2023-06-14T12:38:14;2.38;;;1.33;;